createdAt,value
2022-12-18T00:01:22.487Z,16.58
2022-12-18T00:03:49.727Z,19.70
2022-12-18T00:06:17.373Z,19.70
2022-12-18T00:08:45.570Z,18.60
2022-12-18T00:11:14.441Z,16.02
2022-12-18T00:13:42.133Z,16.55
2022-12-18T00:16:12.203Z,15.30
2022-12-18T00:18:39.484Z,15.93
2022-12-18T00:21:08.681Z,10.40
2022-12-18T00:23:36.775Z,11.45
2022-12-18T00:26:07.410Z,10.95
2022-12-18T00:28:34.592Z,11.30
2022-12-18T00:31:09.918Z,10.55
2022-12-18T00:33:37.841Z,9.30
2022-12-18T00:36:13.491Z,10.65
2022-12-18T00:38:41.528Z,8.90
2022-12-18T00:41:10.191Z,9.02
2022-12-18T00:43:38.493Z,17.70
2022-12-18T00:46:05.991Z,20.70
2022-12-18T00:48:33.108Z,12.98
2022-12-18T00:50:59.656Z,11.90
2022-12-18T00:53:26.197Z,9.80
2022-12-18T00:55:52.768Z,17.07
2022-12-18T00:58:19.867Z,16.83
2022-12-18T01:00:46.522Z,11.85
2022-12-18T01:03:16.450Z,12.82
2022-12-18T01:05:43.471Z,9.57
2022-12-18T01:08:10.133Z,8.45
2022-12-18T01:10:36.740Z,9.43
2022-12-18T01:13:03.333Z,9.27
2022-12-18T01:15:29.917Z,9.15
2022-12-18T01:17:56.453Z,8.60
2022-12-18T01:20:23.024Z,9.57
2022-12-18T01:22:49.603Z,9.00
2022-12-18T01:25:16.293Z,9.05
2022-12-18T01:27:42.850Z,10.02
2022-12-18T01:30:10.003Z,9.10
2022-12-18T01:32:36.769Z,10.70
2022-12-18T01:35:03.795Z,8.73
2022-12-18T01:37:30.481Z,8.23
2022-12-18T01:39:57.002Z,9.80
2022-12-18T01:42:23.592Z,9.27
2022-12-18T01:45:04.342Z,10.32
2022-12-18T01:47:47.693Z,8.02
2022-12-18T01:50:21.864Z,8.52
2022-12-18T01:52:52.670Z,9.13
2022-12-18T01:55:22.903Z,14.65
2022-12-18T01:57:53.571Z,10.57
2022-12-18T02:00:21.995Z,8.75
2022-12-18T02:02:49.109Z,7.57
2022-12-18T02:05:30.524Z,6.10
2022-12-18T02:08:13.351Z,7.82
2022-12-18T02:10:52.096Z,9.40
2022-12-18T02:13:24.659Z,8.82
2022-12-18T02:16:00.796Z,8.10
2022-12-18T02:18:40.126Z,8.63
2022-12-18T02:21:29.559Z,8.48
2022-12-18T02:24:33.952Z,8.00
2022-12-18T02:27:12.217Z,6.38
2022-12-18T02:29:56.039Z,5.50
2022-12-18T02:32:29.059Z,4.63
2022-12-18T02:34:58.236Z,4.35
2022-12-18T02:37:28.163Z,5.28
2022-12-18T02:39:57.961Z,7.30
2022-12-18T02:42:25.433Z,4.40
2022-12-18T02:49:59.177Z,3.65
2022-12-18T02:52:50.336Z,3.95
2022-12-18T02:55:29.047Z,3.45
2022-12-18T02:58:02.441Z,3.47
2022-12-18T03:00:42.517Z,3.55
2022-12-18T03:03:09.055Z,3.83
2022-12-18T03:05:48.951Z,3.40
2022-12-18T03:08:30.979Z,3.60
2022-12-18T03:11:07.142Z,4.10
2022-12-18T03:13:52.741Z,3.65
2022-12-18T03:16:26.531Z,3.28
2022-12-18T03:18:58.312Z,3.55
2022-12-18T03:21:35.990Z,3.70
2022-12-18T03:24:05.626Z,3.95
2022-12-18T03:26:33.542Z,4.30
2022-12-18T03:29:19.574Z,3.70
2022-12-18T03:31:52.394Z,4.07
2022-12-18T03:34:27.686Z,3.67
2022-12-18T03:36:54.325Z,4.05
2022-12-18T03:39:21.149Z,5.20
2022-12-18T03:42:13.529Z,3.88
2022-12-18T03:44:56.196Z,3.78
2022-12-18T03:47:27.616Z,4.55
2022-12-18T03:50:17.728Z,4.18
2022-12-18T03:52:49.160Z,4.43
2022-12-18T03:55:16.545Z,4.40
2022-12-18T04:00:14.275Z,4.00
2022-12-18T04:02:46.604Z,4.43
2022-12-18T04:05:15.333Z,4.32
2022-12-18T04:07:43.035Z,4.35
2022-12-18T04:10:13.353Z,3.92
2022-12-18T04:12:40.015Z,3.70
2022-12-18T04:15:07.388Z,3.60
2022-12-18T04:20:00.312Z,3.80
2022-12-18T04:22:26.887Z,3.73
2022-12-18T04:24:53.418Z,5.83
2022-12-18T04:27:19.993Z,4.60
2022-12-18T04:29:46.586Z,4.03
2022-12-18T04:32:13.095Z,3.67
2022-12-18T04:34:39.673Z,3.90
2022-12-18T04:37:06.242Z,3.90
2022-12-18T04:39:32.814Z,4.43
2022-12-18T04:42:02.660Z,4.05
2022-12-18T04:44:29.244Z,5.63
2022-12-18T04:46:56.873Z,4.72
2022-12-18T04:49:23.386Z,4.38
2022-12-18T04:51:49.905Z,4.40
2022-12-18T04:54:16.507Z,4.23
2022-12-18T04:56:43.062Z,3.47
2022-12-18T04:59:09.612Z,3.77
2022-12-18T05:01:36.264Z,3.83
2022-12-18T05:04:03.756Z,4.03
2022-12-18T05:06:30.442Z,3.13
2022-12-18T05:08:57.059Z,3.63
2022-12-18T05:11:23.736Z,3.30
2022-12-18T05:13:50.532Z,4.15
2022-12-18T05:16:17.226Z,3.55
2022-12-18T05:18:44.082Z,3.70
2022-12-18T05:21:10.613Z,3.67
2022-12-18T05:23:37.556Z,3.20
2022-12-18T05:26:06.783Z,3.72
2022-12-18T05:28:35.275Z,3.65
2022-12-18T05:31:03.889Z,3.70
2022-12-18T05:33:33.068Z,3.30
2022-12-18T05:36:05.238Z,3.70
2022-12-18T05:38:33.639Z,4.00
2022-12-18T05:41:00.273Z,3.60
2022-12-18T05:43:27.632Z,3.17
2022-12-18T05:45:55.019Z,3.17
2022-12-18T05:50:51.152Z,3.45
2022-12-18T05:53:20.319Z,3.17
2022-12-18T05:55:48.021Z,2.92
2022-12-18T05:58:15.620Z,3.05
2022-12-18T06:00:47.116Z,2.75
2022-12-18T06:03:14.902Z,3.38
2022-12-18T06:05:46.200Z,3.50
2022-12-18T06:08:14.095Z,3.63
2022-12-18T06:10:42.067Z,3.65
2022-12-18T06:13:08.692Z,3.35
2022-12-18T06:15:37.724Z,3.03
2022-12-18T06:18:04.479Z,3.50
2022-12-18T06:20:34.267Z,4.53
2022-12-18T06:23:01.325Z,3.30
2022-12-18T06:25:28.026Z,3.13
2022-12-18T06:27:54.602Z,3.20
2022-12-18T06:30:21.244Z,3.57
2022-12-18T06:32:54.669Z,3.58
2022-12-18T06:35:22.825Z,2.78
2022-12-18T06:37:49.531Z,5.22
2022-12-18T06:40:16.085Z,3.50
2022-12-18T06:42:43.123Z,3.42
2022-12-18T06:45:10.197Z,4.05
2022-12-18T06:47:36.794Z,3.63
2022-12-18T06:50:04.007Z,3.40
2022-12-18T06:52:33.108Z,3.30
2022-12-18T06:54:59.658Z,3.55
2022-12-18T06:57:26.185Z,3.43
2022-12-18T06:59:52.732Z,3.90
2022-12-18T07:02:19.426Z,4.75
2022-12-18T07:04:46.116Z,3.55
2022-12-18T07:07:12.696Z,3.67
2022-12-18T07:09:39.328Z,3.90
2022-12-18T07:12:06.090Z,3.50
2022-12-18T07:14:32.617Z,3.90
2022-12-18T07:16:59.183Z,3.50
2022-12-18T07:19:26.766Z,4.40
2022-12-18T07:21:53.330Z,2.60
2022-12-18T07:24:19.872Z,3.90
2022-12-18T07:26:49.564Z,3.30
2022-12-18T07:29:16.325Z,3.78
2022-12-18T07:31:43.014Z,3.40
2022-12-18T07:34:13.861Z,2.55
2022-12-18T07:36:40.637Z,3.97
2022-12-18T07:39:07.298Z,3.67
2022-12-18T07:41:33.922Z,4.60
2022-12-18T07:44:00.476Z,6.80
2022-12-18T07:46:26.991Z,5.45
2022-12-18T07:48:53.512Z,5.60
2022-12-18T07:51:20.621Z,4.03
2022-12-18T07:53:51.987Z,4.68
2022-12-18T07:56:27.224Z,4.80
2022-12-18T07:58:55.122Z,4.30
2022-12-18T08:01:21.819Z,5.85
2022-12-18T08:03:48.577Z,4.90
2022-12-18T08:06:16.752Z,4.30
2022-12-18T08:08:43.426Z,4.22
2022-12-18T08:11:10.203Z,5.05
2022-12-18T08:13:37.282Z,4.60
2022-12-18T08:16:07.432Z,4.95
2022-12-18T08:18:35.037Z,5.03
2022-12-18T08:21:11.615Z,5.05
2022-12-18T08:23:42.561Z,5.00
2022-12-18T08:26:10.679Z,10.18
2022-12-18T08:28:37.406Z,7.28
2022-12-18T08:31:04.032Z,4.90
2022-12-18T08:33:31.410Z,8.68
2022-12-18T08:35:59.853Z,5.05
2022-12-18T08:38:26.489Z,5.35
2022-12-18T08:41:13.386Z,4.90
2022-12-18T08:43:59.351Z,5.22
2022-12-18T08:46:27.854Z,4.57
2022-12-18T08:48:56.911Z,4.82
2022-12-18T08:51:23.969Z,4.78
2022-12-18T08:53:50.585Z,4.57
2022-12-18T08:56:17.723Z,4.65
2022-12-18T08:58:44.294Z,4.80
2022-12-18T09:01:13.243Z,5.10
2022-12-18T09:03:40.860Z,4.80
2022-12-18T09:06:08.262Z,5.07
2022-12-18T09:08:38.197Z,5.18
2022-12-18T09:11:05.230Z,4.63
2022-12-18T09:13:32.121Z,5.03
2022-12-18T09:15:58.710Z,6.75
2022-12-18T09:18:26.117Z,5.20
2022-12-18T09:23:21.502Z,5.22
2022-12-18T09:25:48.265Z,4.93
2022-12-18T09:28:19.425Z,4.95
2022-12-18T09:30:50.412Z,5.22
2022-12-18T09:33:18.425Z,5.68
2022-12-18T09:35:46.467Z,5.07
2022-12-18T09:38:16.537Z,5.18
2022-12-18T09:40:46.118Z,4.72
2022-12-18T09:43:38.457Z,5.72
2022-12-18T09:46:10.017Z,5.10
2022-12-18T09:48:41.638Z,6.25
2022-12-18T09:51:25.764Z,5.57
2022-12-18T09:53:58.492Z,7.95
2022-12-18T09:56:29.296Z,8.43
2022-12-18T09:59:05.047Z,5.80
2022-12-18T10:01:41.726Z,5.63
2022-12-18T10:04:10.950Z,5.45
2022-12-18T10:06:49.802Z,5.82
2022-12-18T10:09:56.349Z,5.80
2022-12-18T10:12:44.398Z,4.85
2022-12-18T10:15:34.938Z,4.80
2022-12-18T10:18:07.510Z,4.88
2022-12-18T10:20:42.526Z,5.10
2022-12-18T10:23:47.985Z,5.35
2022-12-18T10:26:15.545Z,5.65
2022-12-18T10:28:44.653Z,5.45
2022-12-18T10:31:20.061Z,5.90
2022-12-18T10:33:46.923Z,5.18
2022-12-18T10:36:14.255Z,6.38
2022-12-18T10:41:29.728Z,6.40
2022-12-18T10:44:17.933Z,5.97
2022-12-18T10:46:50.171Z,5.60
2022-12-18T10:49:26.473Z,5.35
2022-12-18T10:52:17.658Z,6.93
2022-12-18T10:54:50.346Z,8.10
2022-12-18T10:57:34.337Z,6.18
2022-12-18T11:00:30.228Z,5.65
2022-12-18T11:02:57.500Z,6.20
2022-12-18T11:05:32.353Z,5.80
2022-12-18T11:08:00.630Z,5.22
2022-12-18T11:10:34.328Z,6.40
2022-12-18T11:13:22.331Z,5.97
2022-12-18T11:15:49.817Z,5.53
2022-12-18T11:18:37.076Z,6.40
2022-12-18T11:21:06.820Z,5.28
2022-12-18T11:23:33.395Z,6.32
2022-12-18T11:26:03.402Z,5.80
2022-12-18T11:28:47.920Z,6.43
2022-12-18T11:31:23.698Z,6.50
2022-12-18T11:34:28.645Z,8.02
2022-12-18T11:36:46.573Z,8.30
2022-12-18T11:39:39.623Z,6.70
2022-12-18T11:42:15.503Z,6.78
2022-12-18T11:44:51.072Z,6.50
2022-12-18T11:47:47.210Z,6.10
2022-12-18T11:50:24.841Z,6.85
2022-12-18T11:52:56.701Z,6.47
2022-12-18T11:55:41.597Z,6.07
2022-12-18T11:58:56.179Z,7.90
2022-12-18T12:01:43.417Z,6.63
2022-12-18T12:04:32.099Z,7.70
2022-12-18T12:07:10.594Z,7.78
2022-12-18T12:09:47.377Z,7.93
2022-12-18T12:12:26.580Z,8.32
2022-12-18T12:15:06.866Z,8.88
2022-12-18T12:18:26.739Z,8.85
2022-12-18T12:21:20.786Z,8.98
2022-12-18T12:24:15.409Z,9.55
2022-12-18T12:26:44.975Z,9.15
2022-12-18T12:29:21.413Z,7.82
2022-12-18T12:32:13.305Z,8.00
2022-12-18T12:34:59.236Z,8.00
2022-12-18T12:38:07.894Z,8.90
2022-12-18T12:41:02.478Z,8.80
2022-12-18T12:43:39.152Z,8.55
2022-12-18T12:46:15.103Z,8.18
2022-12-18T12:48:51.971Z,7.70
2022-12-18T12:51:26.509Z,8.07
2022-12-18T12:53:55.716Z,8.88
2022-12-18T12:56:23.352Z,8.98
2022-12-18T12:59:07.984Z,8.60
2022-12-18T13:01:53.388Z,8.50
2022-12-18T13:04:34.943Z,8.77
2022-12-18T13:07:11.486Z,8.73
2022-12-18T13:10:17.854Z,9.05
2022-12-18T13:15:27.207Z,8.30
2022-12-18T13:18:10.294Z,8.43
2022-12-18T13:20:38.310Z,9.70
2022-12-18T13:23:28.506Z,8.85
2022-12-18T13:25:56.596Z,8.73
2022-12-18T13:28:46.981Z,8.60
2022-12-18T13:31:41.203Z,9.25
2022-12-18T13:34:26.690Z,9.23
2022-12-18T13:36:55.877Z,8.80
2022-12-18T13:39:30.271Z,8.73
2022-12-18T13:42:07.023Z,9.25
2022-12-18T13:44:40.303Z,9.15
2022-12-18T13:47:27.879Z,9.77
2022-12-18T13:52:28.737Z,8.57
2022-12-18T13:54:58.799Z,8.95
2022-12-18T13:57:31.803Z,8.85
2022-12-18T13:59:59.480Z,10.93
2022-12-18T14:02:28.525Z,9.25
2022-12-18T14:04:56.501Z,9.13
2022-12-18T14:10:12.056Z,9.05
2022-12-18T14:13:07.663Z,8.93
2022-12-18T14:15:44.685Z,8.45
2022-12-18T14:18:41.084Z,9.73
2022-12-18T14:21:17.841Z,8.43
2022-12-18T14:23:45.130Z,8.88
2022-12-18T14:26:30.542Z,8.80
2022-12-18T14:29:18.463Z,8.90
2022-12-18T14:31:46.029Z,9.65
2022-12-18T14:34:18.607Z,10.23
2022-12-18T14:36:54.330Z,11.68
2022-12-18T14:39:20.899Z,9.35
2022-12-18T14:41:50.675Z,8.57
2022-12-18T14:44:17.225Z,8.15
2022-12-18T14:46:46.827Z,9.13
2022-12-18T14:49:35.503Z,8.82
2022-12-18T14:52:17.223Z,8.57
2022-12-18T14:54:47.931Z,9.02
2022-12-18T14:57:37.338Z,9.77
2022-12-18T15:00:22.112Z,11.10
2022-12-18T15:02:57.440Z,8.35
2022-12-18T15:05:32.344Z,8.95
2022-12-18T15:08:00.753Z,8.40
2022-12-18T15:10:35.479Z,8.52
2022-12-18T15:13:03.479Z,8.52
2022-12-18T15:15:37.168Z,8.25
2022-12-18T15:18:09.755Z,8.70
2022-12-18T15:20:51.516Z,8.23
2022-12-18T15:23:23.349Z,8.82
2022-12-18T15:26:04.216Z,8.50
2022-12-18T15:28:36.028Z,8.73
2022-12-18T15:31:14.607Z,9.40
2022-12-18T15:34:04.976Z,10.25
2022-12-18T15:36:31.871Z,9.40
2022-12-18T15:39:04.946Z,8.50
2022-12-18T15:41:36.190Z,8.90
2022-12-18T15:44:04.232Z,8.25
2022-12-18T15:46:31.952Z,8.18
2022-12-18T15:49:02.251Z,8.13
2022-12-18T15:51:37.583Z,8.95
2022-12-18T15:54:10.036Z,8.50
2022-12-18T15:56:55.077Z,9.23
2022-12-18T15:59:22.085Z,10.50
2022-12-18T16:01:51.740Z,9.50
2022-12-18T16:04:23.256Z,11.68
2022-12-18T16:12:04.951Z,8.40
2022-12-18T16:19:30.048Z,15.63
2022-12-18T16:21:58.393Z,13.82
2022-12-18T16:24:27.895Z,13.52
2022-12-18T16:26:55.308Z,9.88
2022-12-18T16:31:59.017Z,8.35
2022-12-18T16:34:34.885Z,7.57
2022-12-18T16:37:06.145Z,7.47
2022-12-18T16:39:36.657Z,7.28
2022-12-18T16:42:06.941Z,7.00
2022-12-18T16:44:36.731Z,7.68
2022-12-18T16:47:04.417Z,7.20
2022-12-18T16:49:31.998Z,7.10
2022-12-18T16:51:58.677Z,6.70
2022-12-18T16:54:25.397Z,7.28
2022-12-18T16:56:52.592Z,6.90
2022-12-18T16:59:19.821Z,6.60
2022-12-18T17:04:13.877Z,7.10
2022-12-18T17:06:45.826Z,6.45
2022-12-18T17:09:15.639Z,7.03
2022-12-18T17:11:43.104Z,6.97
2022-12-18T17:16:37.735Z,6.65
2022-12-18T17:19:08.786Z,6.85
2022-12-18T17:21:38.997Z,7.25
2022-12-18T17:24:07.382Z,6.82
2022-12-18T17:26:33.937Z,6.85
2022-12-18T17:29:00.751Z,6.80
2022-12-18T17:31:29.726Z,6.40
2022-12-18T17:33:56.848Z,7.38
2022-12-18T17:36:24.746Z,6.78
2022-12-18T17:38:57.222Z,7.60
2022-12-18T17:41:24.540Z,7.82
2022-12-18T17:44:02.396Z,6.72
2022-12-18T17:46:31.021Z,6.90
2022-12-18T17:49:02.646Z,6.53
2022-12-18T17:51:30.141Z,6.88
2022-12-18T17:53:57.228Z,6.82
2022-12-18T17:56:24.753Z,6.15
2022-12-18T17:58:51.931Z,6.60
2022-12-18T18:01:24.061Z,6.75
2022-12-18T18:03:52.988Z,6.47
2022-12-18T18:06:20.491Z,6.15
2022-12-18T18:08:47.354Z,5.93
2022-12-18T18:14:01.160Z,6.38
2022-12-18T18:16:39.668Z,6.07
2022-12-18T18:19:09.241Z,6.25
2022-12-18T18:21:38.964Z,5.95
2022-12-18T18:24:06.013Z,6.05
2022-12-18T18:26:34.535Z,6.03
2022-12-18T18:29:03.349Z,5.82
2022-12-18T18:31:35.716Z,6.03
2022-12-18T18:34:08.848Z,5.93
2022-12-18T18:39:02.477Z,5.88
2022-12-18T18:41:30.583Z,6.20
2022-12-18T18:43:58.461Z,6.70
2022-12-18T18:46:25.838Z,6.03
2022-12-18T18:51:21.381Z,6.13
2022-12-18T18:53:50.638Z,6.10
2022-12-18T18:56:56.238Z,5.93
2022-12-18T18:59:06.587Z,6.30
2022-12-18T19:01:33.510Z,7.38
2022-12-18T19:04:01.049Z,6.13
2022-12-18T19:08:56.763Z,5.07
2022-12-18T19:11:43.504Z,5.82
2022-12-18T19:14:12.072Z,5.35
2022-12-18T19:16:39.264Z,6.45
2022-12-18T19:19:07.096Z,6.65
2022-12-18T19:21:34.912Z,5.90
2022-12-18T19:26:29.320Z,5.53
2022-12-18T19:29:02.136Z,5.47
2022-12-18T19:31:34.820Z,6.07
2022-12-18T19:34:04.910Z,6.03
2022-12-18T19:36:32.867Z,6.38
2022-12-18T19:39:01.381Z,6.13
2022-12-18T19:41:30.665Z,6.38
2022-12-18T19:43:58.712Z,6.90
2022-12-18T19:46:25.391Z,7.28
2022-12-18T19:48:52.234Z,7.55
2022-12-18T19:51:24.787Z,7.60
2022-12-18T19:53:58.124Z,7.68
2022-12-18T19:56:27.679Z,6.47
2022-12-18T19:58:55.003Z,6.60
2022-12-18T20:01:23.821Z,6.72
2022-12-18T20:03:52.200Z,6.78
2022-12-18T20:06:25.279Z,6.53
2022-12-18T20:08:52.649Z,7.50
2022-12-18T20:11:21.088Z,6.97
2022-12-18T20:13:47.651Z,6.47
2022-12-18T20:16:14.659Z,6.47
2022-12-18T20:18:41.247Z,5.78
2022-12-18T20:21:13.608Z,9.65
2022-12-18T20:23:40.959Z,5.03
2022-12-18T20:26:08.565Z,5.47
2022-12-18T20:28:35.495Z,5.28
2022-12-18T20:31:04.005Z,4.18
2022-12-18T20:33:31.046Z,5.50
2022-12-18T20:36:06.819Z,5.43
2022-12-18T20:38:35.420Z,5.10
2022-12-18T20:41:06.503Z,5.10
2022-12-18T20:43:33.096Z,5.22
2022-12-18T20:46:09.405Z,5.53
2022-12-18T20:48:36.631Z,4.07
2022-12-18T20:51:09.882Z,5.55
2022-12-18T20:53:36.951Z,5.47
2022-12-18T20:56:10.785Z,5.32
2022-12-18T20:58:37.427Z,5.88
2022-12-18T21:01:10.042Z,5.32
2022-12-18T21:03:37.595Z,5.50
2022-12-18T21:06:04.418Z,5.22
2022-12-18T21:08:31.818Z,5.55
2022-12-18T21:13:58.788Z,5.32
2022-12-18T21:16:25.660Z,5.57
2022-12-18T21:21:26.260Z,5.63
2022-12-18T21:23:54.111Z,6.80
2022-12-18T21:26:23.383Z,5.97
2022-12-18T21:28:58.424Z,6.10
2022-12-18T21:31:27.534Z,6.93
2022-12-18T21:33:54.125Z,7.03
2022-12-18T21:36:26.484Z,8.63
2022-12-18T21:38:54.842Z,8.23
2022-12-18T21:41:42.353Z,8.85
2022-12-18T21:44:12.268Z,9.23
2022-12-18T21:46:40.998Z,8.60
2022-12-18T21:49:08.964Z,8.60
2022-12-18T21:51:36.530Z,8.27
2022-12-18T21:54:03.502Z,9.30
2022-12-18T21:56:48.666Z,9.60
2022-12-18T21:59:35.860Z,9.52
2022-12-18T22:02:08.540Z,9.60
2022-12-18T22:04:35.233Z,9.68
2022-12-18T22:07:02.351Z,9.60
2022-12-18T22:09:28.998Z,9.43
2022-12-18T22:11:55.545Z,8.65
2022-12-18T22:14:23.199Z,5.93
2022-12-18T22:16:50.591Z,8.88
2022-12-18T22:21:46.721Z,8.77
2022-12-18T22:24:17.201Z,8.40
2022-12-18T22:26:44.024Z,8.35
2022-12-18T22:29:44.126Z,5.72
2022-12-18T22:32:15.107Z,8.18
2022-12-18T22:34:42.896Z,7.78
2022-12-18T22:37:13.064Z,8.15
2022-12-18T22:39:40.134Z,7.75
2022-12-18T22:42:07.468Z,7.38
2022-12-18T22:44:34.192Z,7.55
2022-12-18T22:47:06.269Z,8.00
2022-12-18T22:49:35.227Z,8.38
2022-12-18T22:52:06.670Z,8.82
2022-12-18T22:54:33.171Z,7.97
2022-12-18T22:56:59.693Z,8.17
2022-12-18T22:59:26.214Z,8.00
2022-12-18T23:01:58.674Z,8.73
2022-12-18T23:04:33.439Z,8.50
2022-12-18T23:07:06.573Z,8.43
2022-12-18T23:09:33.741Z,8.57
2022-12-18T23:12:00.578Z,8.13
2022-12-18T23:14:28.419Z,8.48
2022-12-18T23:16:55.111Z,8.25
2022-12-18T23:19:23.651Z,6.78
2022-12-18T23:21:50.758Z,8.13
2022-12-18T23:24:17.313Z,7.97
2022-12-18T23:26:43.920Z,8.32
2022-12-18T23:29:10.498Z,8.10
2022-12-18T23:31:38.714Z,9.15
2022-12-18T23:34:06.837Z,8.50
2022-12-18T23:36:45.502Z,8.95
2022-12-18T23:39:15.502Z,8.98
2022-12-18T23:41:57.900Z,9.32
2022-12-18T23:44:24.861Z,8.93
2022-12-18T23:46:51.557Z,9.23
2022-12-18T23:49:18.163Z,9.07
2022-12-18T23:51:44.689Z,9.73
2022-12-18T23:54:11.310Z,9.23
2022-12-18T23:56:37.925Z,9.63
2022-12-18T23:59:04.804Z,8.90
